sensor_id;sensor_type;location;lat;lon;timestamp;P1;durP1;ratioP1;P2;durP2;ratioP2
5125;SDS011;63008;53.112;8.896;2023-06-10T00:01:22;9.87;;;4.27;;
5125;SDS011;63008;53.112;8.896;2023-06-10T00:03:24;8.17;;;4.13;;
5125;SDS011;63008;53.112;8.896;2023-06-10T00:05:25;10.20;;;3.73;;
5125;SDS011;63008;53.112;8.896;2023-06-10T00:07:26;17.03;;;4.23;;
5125;SDS011;63008;53.112;8.896;2023-06-10T00:09:27;6.53;;;4.00;;
5125;SDS011;63008;53.112;8.896;2023-06-10T00:11:30;9.33;;;4.63;;
5125;SDS011;63008;53.112;8.896;2023-06-10T00:13:34;13.73;;;4.70;;
5125;SDS011;63008;53.112;8.896;2023-06-10T00:15:35;11.53;;;4.60;;
5125;SDS011;63008;53.112;8.896;2023-06-10T00:17:36;11.63;;;4.40;;
5125;SDS011;63008;53.112;8.896;2023-06-10T00:19:39;10.83;;;4.77;;
5125;SDS011;63008;53.112;8.896;2023-06-10T00:21:41;17.07;;;5.23;;
5125;SDS011;63008;53.112;8.896;2023-06-10T00:23:42;9.57;;;4.20;;
5125;SDS011;63008;53.112;8.896;2023-06-10T00:25:44;16.37;;;5.87;;
5125;SDS011;63008;53.112;8.896;2023-06-10T00:27:45;13.67;;;4.60;;
5125;SDS011;63008;53.112;8.896;2023-06-10T00:29:46;8.27;;;5.03;;
5125;SDS011;63008;53.112;8.896;2023-06-10T00:31:47;13.27;;;5.90;;
5125;SDS011;63008;53.112;8.896;2023-06-10T00:33:48;10.13;;;5.63;;
5125;SDS011;63008;53.112;8.896;2023-06-10T00:35:49;13.60;;;5.10;;
5125;SDS011;63008;53.112;8.896;2023-06-10T00:37:50;15.20;;;5.10;;
5125;SDS011;63008;53.112;8.896;2023-06-10T00:39:51;10.43;;;5.10;;
5125;SDS011;63008;53.112;8.896;2023-06-10T00:41:52;10.67;;;5.43;;
5125;SDS011;63008;53.112;8.896;2023-06-10T00:43:53;13.87;;;5.50;;
5125;SDS011;63008;53.112;8.896;2023-06-10T00:45:54;15.60;;;6.50;;
5125;SDS011;63008;53.112;8.896;2023-06-10T00:47:55;17.40;;;5.63;;
5125;SDS011;63008;53.112;8.896;2023-06-10T00:49:56;6.77;;;5.40;;
5125;SDS011;63008;53.112;8.896;2023-06-10T00:51:57;12.73;;;5.93;;
5125;SDS011;63008;53.112;8.896;2023-06-10T00:53:59;17.00;;;6.07;;
5125;SDS011;63008;53.112;8.896;2023-06-10T00:56:00;11.43;;;5.63;;
5125;SDS011;63008;53.112;8.896;2023-06-10T00:58:01;13.40;;;5.73;;
5125;SDS011;63008;53.112;8.896;2023-06-10T01:00:04;15.93;;;6.37;;
5125;SDS011;63008;53.112;8.896;2023-06-10T01:02:08;13.33;;;5.77;;
5125;SDS011;63008;53.112;8.896;2023-06-10T01:04:09;11.43;;;5.40;;
5125;SDS011;63008;53.112;8.896;2023-06-10T01:06:14;17.50;;;6.03;;
5125;SDS011;63008;53.112;8.896;2023-06-10T01:08:28;10.00;;;5.10;;
5125;SDS011;63008;53.112;8.896;2023-06-10T01:10:42;15.20;;;6.20;;
5125;SDS011;63008;53.112;8.896;2023-06-10T01:12:59;9.03;;;5.73;;
5125;SDS011;63008;53.112;8.896;2023-06-10T01:15:05;12.20;;;5.40;;
5125;SDS011;63008;53.112;8.896;2023-06-10T01:17:08;13.70;;;5.87;;
5125;SDS011;63008;53.112;8.896;2023-06-10T01:19:10;11.27;;;6.30;;
5125;SDS011;63008;53.112;8.896;2023-06-10T01:21:22;16.33;;;5.37;;
5125;SDS011;63008;53.112;8.896;2023-06-10T01:23:27;12.53;;;6.10;;
5125;SDS011;63008;53.112;8.896;2023-06-10T01:25:28;18.40;;;6.40;;
5125;SDS011;63008;53.112;8.896;2023-06-10T01:27:33;16.60;;;6.30;;
5125;SDS011;63008;53.112;8.896;2023-06-10T01:29:43;16.57;;;6.03;;
5125;SDS011;63008;53.112;8.896;2023-06-10T01:33:59;13.87;;;5.77;;
5125;SDS011;63008;53.112;8.896;2023-06-10T01:36:00;10.20;;;6.50;;
5125;SDS011;63008;53.112;8.896;2023-06-10T01:38:03;9.93;;;6.00;;
5125;SDS011;63008;53.112;8.896;2023-06-10T01:40:05;13.00;;;5.83;;
5125;SDS011;63008;53.112;8.896;2023-06-10T01:42:06;19.03;;;6.70;;
5125;SDS011;63008;53.112;8.896;2023-06-10T01:44:10;11.53;;;6.80;;
5125;SDS011;63008;53.112;8.896;2023-06-10T01:46:11;21.97;;;6.67;;
5125;SDS011;63008;53.112;8.896;2023-06-10T01:48:12;12.03;;;5.93;;
5125;SDS011;63008;53.112;8.896;2023-06-10T01:50:13;18.67;;;6.87;;
5125;SDS011;63008;53.112;8.896;2023-06-10T01:52:15;16.83;;;7.47;;
5125;SDS011;63008;53.112;8.896;2023-06-10T01:54:16;12.03;;;6.77;;
5125;SDS011;63008;53.112;8.896;2023-06-10T01:56:17;11.20;;;6.83;;
5125;SDS011;63008;53.112;8.896;2023-06-10T01:58:20;18.90;;;6.67;;
5125;SDS011;63008;53.112;8.896;2023-06-10T02:00:21;9.40;;;6.17;;
5125;SDS011;63008;53.112;8.896;2023-06-10T02:02:22;13.17;;;6.67;;
5125;SDS011;63008;53.112;8.896;2023-06-10T02:04:23;13.70;;;6.70;;
5125;SDS011;63008;53.112;8.896;2023-06-10T02:06:24;15.10;;;6.43;;
5125;SDS011;63008;53.112;8.896;2023-06-10T02:08:25;15.67;;;6.27;;
5125;SDS011;63008;53.112;8.896;2023-06-10T02:10:26;17.40;;;6.73;;
5125;SDS011;63008;53.112;8.896;2023-06-10T02:12:27;16.70;;;6.53;;
5125;SDS011;63008;53.112;8.896;2023-06-10T02:14:27;12.27;;;6.47;;
5125;SDS011;63008;53.112;8.896;2023-06-10T02:16:28;15.80;;;6.20;;
5125;SDS011;63008;53.112;8.896;2023-06-10T02:18:30;11.57;;;5.90;;
5125;SDS011;63008;53.112;8.896;2023-06-10T02:20:31;13.93;;;6.17;;
5125;SDS011;63008;53.112;8.896;2023-06-10T02:22:32;10.53;;;6.10;;
5125;SDS011;63008;53.112;8.896;2023-06-10T02:24:33;14.90;;;6.57;;
5125;SDS011;63008;53.112;8.896;2023-06-10T02:26:34;17.53;;;6.57;;
5125;SDS011;63008;53.112;8.896;2023-06-10T02:28:35;11.60;;;7.23;;
5125;SDS011;63008;53.112;8.896;2023-06-10T02:30:38;16.07;;;6.83;;
5125;SDS011;63008;53.112;8.896;2023-06-10T02:32:40;16.43;;;8.10;;
5125;SDS011;63008;53.112;8.896;2023-06-10T02:34:41;17.77;;;7.30;;
5125;SDS011;63008;53.112;8.896;2023-06-10T02:36:43;17.47;;;7.50;;
5125;SDS011;63008;53.112;8.896;2023-06-10T02:38:44;11.30;;;7.00;;
5125;SDS011;63008;53.112;8.896;2023-06-10T02:40:45;16.50;;;6.73;;
5125;SDS011;63008;53.112;8.896;2023-06-10T02:42:46;14.00;;;7.63;;
5125;SDS011;63008;53.112;8.896;2023-06-10T02:44:47;13.40;;;7.07;;
5125;SDS011;63008;53.112;8.896;2023-06-10T02:46:48;10.63;;;7.33;;
5125;SDS011;63008;53.112;8.896;2023-06-10T02:48:49;12.60;;;8.37;;
5125;SDS011;63008;53.112;8.896;2023-06-10T02:50:52;11.10;;;7.50;;
5125;SDS011;63008;53.112;8.896;2023-06-10T02:52:53;15.40;;;7.80;;
5125;SDS011;63008;53.112;8.896;2023-06-10T02:54:54;12.30;;;7.00;;
5125;SDS011;63008;53.112;8.896;2023-06-10T02:56:55;14.43;;;7.60;;
5125;SDS011;63008;53.112;8.896;2023-06-10T02:58:56;16.23;;;7.70;;
5125;SDS011;63008;53.112;8.896;2023-06-10T03:00:58;13.23;;;7.03;;
5125;SDS011;63008;53.112;8.896;2023-06-10T03:02:59;12.77;;;7.20;;
5125;SDS011;63008;53.112;8.896;2023-06-10T03:05:03;13.20;;;7.00;;
5125;SDS011;63008;53.112;8.896;2023-06-10T03:07:04;9.00;;;6.77;;
5125;SDS011;63008;53.112;8.896;2023-06-10T03:09:07;15.03;;;6.70;;
5125;SDS011;63008;53.112;8.896;2023-06-10T03:11:08;15.33;;;7.70;;
5125;SDS011;63008;53.112;8.896;2023-06-10T03:13:09;9.03;;;6.30;;
5125;SDS011;63008;53.112;8.896;2023-06-10T03:15:10;11.77;;;6.60;;
5125;SDS011;63008;53.112;8.896;2023-06-10T03:17:11;12.30;;;7.20;;
5125;SDS011;63008;53.112;8.896;2023-06-10T03:19:12;15.47;;;7.40;;
5125;SDS011;63008;53.112;8.896;2023-06-10T03:21:13;10.20;;;6.87;;
5125;SDS011;63008;53.112;8.896;2023-06-10T03:23:14;18.33;;;6.53;;
5125;SDS011;63008;53.112;8.896;2023-06-10T03:25:16;9.03;;;6.47;;
5125;SDS011;63008;53.112;8.896;2023-06-10T03:27:17;15.13;;;6.57;;
5125;SDS011;63008;53.112;8.896;2023-06-10T03:29:18;9.30;;;6.20;;
5125;SDS011;63008;53.112;8.896;2023-06-10T03:31:20;10.90;;;6.20;;
5125;SDS011;63008;53.112;8.896;2023-06-10T03:33:21;11.10;;;6.10;;
5125;SDS011;63008;53.112;8.896;2023-06-10T03:35:22;10.53;;;5.67;;
5125;SDS011;63008;53.112;8.896;2023-06-10T03:37:24;11.73;;;6.00;;
5125;SDS011;63008;53.112;8.896;2023-06-10T03:39:25;15.30;;;6.07;;
5125;SDS011;63008;53.112;8.896;2023-06-10T03:41:29;10.40;;;5.40;;
5125;SDS011;63008;53.112;8.896;2023-06-10T03:43:30;11.70;;;5.80;;
5125;SDS011;63008;53.112;8.896;2023-06-10T03:45:31;12.30;;;5.23;;
5125;SDS011;63008;53.112;8.896;2023-06-10T03:47:36;10.40;;;6.00;;
5125;SDS011;63008;53.112;8.896;2023-06-10T03:49:38;8.00;;;5.60;;
5125;SDS011;63008;53.112;8.896;2023-06-10T03:51:40;9.70;;;5.93;;
5125;SDS011;63008;53.112;8.896;2023-06-10T03:53:41;9.10;;;5.80;;
5125;SDS011;63008;53.112;8.896;2023-06-10T03:55:42;13.33;;;5.43;;
5125;SDS011;63008;53.112;8.896;2023-06-10T03:57:43;12.83;;;5.87;;
5125;SDS011;63008;53.112;8.896;2023-06-10T03:59:44;8.70;;;5.03;;
5125;SDS011;63008;53.112;8.896;2023-06-10T04:01:45;10.93;;;5.60;;
5125;SDS011;63008;53.112;8.896;2023-06-10T04:03:47;11.27;;;5.63;;
5125;SDS011;63008;53.112;8.896;2023-06-10T04:05:49;9.77;;;5.67;;
5125;SDS011;63008;53.112;8.896;2023-06-10T04:07:50;8.70;;;5.40;;
5125;SDS011;63008;53.112;8.896;2023-06-10T04:09:54;8.33;;;4.80;;
5125;SDS011;63008;53.112;8.896;2023-06-10T04:11:55;8.27;;;5.27;;
5125;SDS011;63008;53.112;8.896;2023-06-10T04:13:56;10.47;;;6.50;;
5125;SDS011;63008;53.112;8.896;2023-06-10T04:15:57;11.80;;;5.80;;
5125;SDS011;63008;53.112;8.896;2023-06-10T04:17:58;8.30;;;5.93;;
5125;SDS011;63008;53.112;8.896;2023-06-10T04:19:59;8.83;;;5.90;;
5125;SDS011;63008;53.112;8.896;2023-06-10T04:22:01;8.97;;;5.20;;
5125;SDS011;63008;53.112;8.896;2023-06-10T04:24:03;7.63;;;5.00;;
5125;SDS011;63008;53.112;8.896;2023-06-10T04:26:04;10.50;;;5.30;;
5125;SDS011;63008;53.112;8.896;2023-06-10T04:28:06;8.50;;;5.30;;
5125;SDS011;63008;53.112;8.896;2023-06-10T04:30:07;9.03;;;5.27;;
5125;SDS011;63008;53.112;8.896;2023-06-10T04:32:08;17.37;;;6.60;;
5125;SDS011;63008;53.112;8.896;2023-06-10T04:34:09;12.03;;;6.00;;
5125;SDS011;63008;53.112;8.896;2023-06-10T04:36:10;11.83;;;6.00;;
5125;SDS011;63008;53.112;8.896;2023-06-10T04:38:11;11.33;;;5.80;;
5125;SDS011;63008;53.112;8.896;2023-06-10T04:40:13;8.80;;;5.37;;
5125;SDS011;63008;53.112;8.896;2023-06-10T04:42:16;10.13;;;5.47;;
5125;SDS011;63008;53.112;8.896;2023-06-10T04:44:17;9.37;;;5.73;;
5125;SDS011;63008;53.112;8.896;2023-06-10T04:46:19;8.40;;;5.73;;
5125;SDS011;63008;53.112;8.896;2023-06-10T04:48:20;8.47;;;5.53;;
5125;SDS011;63008;53.112;8.896;2023-06-10T04:50:21;8.33;;;5.70;;
5125;SDS011;63008;53.112;8.896;2023-06-10T04:52:22;12.80;;;4.80;;
5125;SDS011;63008;53.112;8.896;2023-06-10T04:54:23;15.90;;;7.33;;
5125;SDS011;63008;53.112;8.896;2023-06-10T04:56:24;11.17;;;5.40;;
5125;SDS011;63008;53.112;8.896;2023-06-10T04:58:25;8.63;;;6.23;;
5125;SDS011;63008;53.112;8.896;2023-06-10T05:00:26;14.50;;;5.30;;
5125;SDS011;63008;53.112;8.896;2023-06-10T05:02:27;7.47;;;5.03;;
5125;SDS011;63008;53.112;8.896;2023-06-10T05:04:28;11.80;;;6.13;;
5125;SDS011;63008;53.112;8.896;2023-06-10T05:06:30;13.50;;;5.67;;
5125;SDS011;63008;53.112;8.896;2023-06-10T05:08:31;10.73;;;5.23;;
5125;SDS011;63008;53.112;8.896;2023-06-10T05:10:32;8.30;;;5.40;;
5125;SDS011;63008;53.112;8.896;2023-06-10T05:12:34;9.80;;;5.47;;
5125;SDS011;63008;53.112;8.896;2023-06-10T05:14:35;8.90;;;5.60;;
5125;SDS011;63008;53.112;8.896;2023-06-10T05:16:36;9.57;;;5.60;;
5125;SDS011;63008;53.112;8.896;2023-06-10T05:18:37;15.57;;;6.37;;
5125;SDS011;63008;53.112;8.896;2023-06-10T05:20:38;8.57;;;5.30;;
5125;SDS011;63008;53.112;8.896;2023-06-10T05:22:40;10.40;;;5.17;;
5125;SDS011;63008;53.112;8.896;2023-06-10T05:24:41;7.83;;;5.00;;
5125;SDS011;63008;53.112;8.896;2023-06-10T05:26:42;10.13;;;4.90;;
5125;SDS011;63008;53.112;8.896;2023-06-10T05:28:43;7.17;;;5.10;;
5125;SDS011;63008;53.112;8.896;2023-06-10T05:30:44;8.00;;;4.37;;
5125;SDS011;63008;53.112;8.896;2023-06-10T05:32:45;10.20;;;5.00;;
5125;SDS011;63008;53.112;8.896;2023-06-10T05:34:46;12.37;;;6.10;;
5125;SDS011;63008;53.112;8.896;2023-06-10T05:36:47;7.10;;;5.43;;
5125;SDS011;63008;53.112;8.896;2023-06-10T05:38:48;12.03;;;5.13;;
5125;SDS011;63008;53.112;8.896;2023-06-10T05:40:49;12.63;;;5.27;;
5125;SDS011;63008;53.112;8.896;2023-06-10T05:42:49;9.63;;;5.77;;
5125;SDS011;63008;53.112;8.896;2023-06-10T05:44:50;8.77;;;4.60;;
5125;SDS011;63008;53.112;8.896;2023-06-10T05:46:54;13.80;;;5.70;;
5125;SDS011;63008;53.112;8.896;2023-06-10T05:48:56;7.40;;;4.77;;
5125;SDS011;63008;53.112;8.896;2023-06-10T05:51:00;7.97;;;4.77;;
5125;SDS011;63008;53.112;8.896;2023-06-10T05:53:01;10.13;;;5.53;;
5125;SDS011;63008;53.112;8.896;2023-06-10T05:55:03;12.33;;;5.63;;
5125;SDS011;63008;53.112;8.896;2023-06-10T05:57:04;9.80;;;4.67;;
5125;SDS011;63008;53.112;8.896;2023-06-10T05:59:06;9.00;;;4.70;;
5125;SDS011;63008;53.112;8.896;2023-06-10T06:01:07;8.80;;;4.57;;
5125;SDS011;63008;53.112;8.896;2023-06-10T06:03:08;9.50;;;4.37;;
5125;SDS011;63008;53.112;8.896;2023-06-10T06:05:10;7.77;;;4.70;;
5125;SDS011;63008;53.112;8.896;2023-06-10T06:07:11;11.20;;;5.60;;
5125;SDS011;63008;53.112;8.896;2023-06-10T06:09:12;9.73;;;4.90;;
5125;SDS011;63008;53.112;8.896;2023-06-10T06:11:13;6.87;;;4.33;;
5125;SDS011;63008;53.112;8.896;2023-06-10T06:13:14;15.53;;;5.03;;
5125;SDS011;63008;53.112;8.896;2023-06-10T06:15:15;11.13;;;4.60;;
5125;SDS011;63008;53.112;8.896;2023-06-10T06:17:16;7.73;;;4.50;;
5125;SDS011;63008;53.112;8.896;2023-06-10T06:19:17;7.33;;;4.00;;
5125;SDS011;63008;53.112;8.896;2023-06-10T06:21:18;7.07;;;4.50;;
5125;SDS011;63008;53.112;8.896;2023-06-10T06:23:19;7.30;;;4.00;;
5125;SDS011;63008;53.112;8.896;2023-06-10T06:25:20;7.90;;;4.63;;
5125;SDS011;63008;53.112;8.896;2023-06-10T06:27:21;11.47;;;5.37;;
5125;SDS011;63008;53.112;8.896;2023-06-10T06:29:25;7.23;;;4.33;;
5125;SDS011;63008;53.112;8.896;2023-06-10T06:31:26;11.30;;;4.50;;
5125;SDS011;63008;53.112;8.896;2023-06-10T06:33:27;7.20;;;5.03;;
5125;SDS011;63008;53.112;8.896;2023-06-10T06:35:32;9.97;;;5.33;;
5125;SDS011;63008;53.112;8.896;2023-06-10T06:37:35;9.70;;;4.70;;
5125;SDS011;63008;53.112;8.896;2023-06-10T06:39:36;10.43;;;5.13;;
5125;SDS011;63008;53.112;8.896;2023-06-10T06:41:37;11.27;;;4.70;;
5125;SDS011;63008;53.112;8.896;2023-06-10T06:43:39;8.63;;;4.60;;
5125;SDS011;63008;53.112;8.896;2023-06-10T06:45:40;8.60;;;4.40;;
5125;SDS011;63008;53.112;8.896;2023-06-10T06:47:41;7.30;;;4.40;;
5125;SDS011;63008;53.112;8.896;2023-06-10T06:49:43;7.97;;;4.73;;
5125;SDS011;63008;53.112;8.896;2023-06-10T06:51:44;13.80;;;4.90;;
5125;SDS011;63008;53.112;8.896;2023-06-10T06:53:45;6.50;;;4.77;;
5125;SDS011;63008;53.112;8.896;2023-06-10T06:55:46;9.37;;;5.20;;
5125;SDS011;63008;53.112;8.896;2023-06-10T06:57:47;11.70;;;4.53;;
5125;SDS011;63008;53.112;8.896;2023-06-10T06:59:48;8.00;;;4.80;;
5125;SDS011;63008;53.112;8.896;2023-06-10T07:01:49;5.80;;;4.23;;
5125;SDS011;63008;53.112;8.896;2023-06-10T07:03:50;8.33;;;4.50;;
5125;SDS011;63008;53.112;8.896;2023-06-10T07:05:51;7.97;;;4.73;;
5125;SDS011;63008;53.112;8.896;2023-06-10T07:07:52;11.07;;;4.27;;
5125;SDS011;63008;53.112;8.896;2023-06-10T07:09:56;17.33;;;5.00;;
5125;SDS011;63008;53.112;8.896;2023-06-10T07:11:57;14.43;;;5.00;;
5125;SDS011;63008;53.112;8.896;2023-06-10T07:14:01;7.67;;;4.97;;
5125;SDS011;63008;53.112;8.896;2023-06-10T07:16:02;9.07;;;4.43;;
5125;SDS011;63008;53.112;8.896;2023-06-10T07:18:03;6.50;;;4.30;;
5125;SDS011;63008;53.112;8.896;2023-06-10T07:20:04;8.97;;;3.97;;
5125;SDS011;63008;53.112;8.896;2023-06-10T07:22:06;7.47;;;4.90;;
5125;SDS011;63008;53.112;8.896;2023-06-10T07:24:06;9.73;;;4.07;;
5125;SDS011;63008;53.112;8.896;2023-06-10T07:26:08;10.80;;;4.57;;
5125;SDS011;63008;53.112;8.896;2023-06-10T07:28:11;10.93;;;4.83;;
5125;SDS011;63008;53.112;8.896;2023-06-10T07:30:12;9.60;;;5.23;;
5125;SDS011;63008;53.112;8.896;2023-06-10T07:32:13;12.53;;;4.70;;
5125;SDS011;63008;53.112;8.896;2023-06-10T07:34:14;9.33;;;4.37;;
5125;SDS011;63008;53.112;8.896;2023-06-10T07:36:15;5.53;;;3.60;;
5125;SDS011;63008;53.112;8.896;2023-06-10T07:38:17;8.80;;;4.40;;
5125;SDS011;63008;53.112;8.896;2023-06-10T07:40:18;13.50;;;4.57;;
5125;SDS011;63008;53.112;8.896;2023-06-10T07:42:19;11.40;;;4.27;;
5125;SDS011;63008;53.112;8.896;2023-06-10T07:44:20;8.97;;;3.70;;
5125;SDS011;63008;53.112;8.896;2023-06-10T07:46:21;5.73;;;3.77;;
5125;SDS011;63008;53.112;8.896;2023-06-10T07:48:23;8.73;;;3.87;;
5125;SDS011;63008;53.112;8.896;2023-06-10T07:50:24;9.60;;;4.33;;
5125;SDS011;63008;53.112;8.896;2023-06-10T07:52:25;14.17;;;4.70;;
5125;SDS011;63008;53.112;8.896;2023-06-10T07:54:26;8.77;;;4.20;;
5125;SDS011;63008;53.112;8.896;2023-06-10T07:56:27;12.07;;;4.40;;
5125;SDS011;63008;53.112;8.896;2023-06-10T07:58:28;9.60;;;4.20;;
5125;SDS011;63008;53.112;8.896;2023-06-10T08:00:29;13.63;;;4.47;;
5125;SDS011;63008;53.112;8.896;2023-06-10T08:02:30;9.37;;;4.37;;
5125;SDS011;63008;53.112;8.896;2023-06-10T08:04:31;6.23;;;4.10;;
5125;SDS011;63008;53.112;8.896;2023-06-10T08:06:32;9.67;;;3.70;;
5125;SDS011;63008;53.112;8.896;2023-06-10T08:08:33;10.73;;;4.10;;
5125;SDS011;63008;53.112;8.896;2023-06-10T08:10:35;13.60;;;4.00;;
5125;SDS011;63008;53.112;8.896;2023-06-10T08:12:36;12.90;;;3.70;;
5125;SDS011;63008;53.112;8.896;2023-06-10T08:14:37;7.30;;;4.07;;
5125;SDS011;63008;53.112;8.896;2023-06-10T08:16:39;6.17;;;3.77;;
5125;SDS011;63008;53.112;8.896;2023-06-10T08:18:40;4.90;;;3.97;;
5125;SDS011;63008;53.112;8.896;2023-06-10T08:20:41;6.10;;;3.80;;
5125;SDS011;63008;53.112;8.896;2023-06-10T08:22:42;6.60;;;4.10;;
5125;SDS011;63008;53.112;8.896;2023-06-10T08:24:43;7.23;;;4.47;;
5125;SDS011;63008;53.112;8.896;2023-06-10T08:26:44;11.53;;;3.83;;
5125;SDS011;63008;53.112;8.896;2023-06-10T08:28:45;6.00;;;4.10;;
5125;SDS011;63008;53.112;8.896;2023-06-10T08:30:46;11.07;;;3.87;;
5125;SDS011;63008;53.112;8.896;2023-06-10T08:32:47;10.77;;;3.87;;
5125;SDS011;63008;53.112;8.896;2023-06-10T08:34:48;7.00;;;3.67;;
5125;SDS011;63008;53.112;8.896;2023-06-10T08:36:49;7.47;;;4.20;;
5125;SDS011;63008;53.112;8.896;2023-06-10T08:38:53;10.93;;;4.60;;
5125;SDS011;63008;53.112;8.896;2023-06-10T08:40:56;6.50;;;3.70;;
5125;SDS011;63008;53.112;8.896;2023-06-10T08:43:06;9.27;;;4.00;;
5125;SDS011;63008;53.112;8.896;2023-06-10T08:45:09;9.27;;;3.80;;
5125;SDS011;63008;53.112;8.896;2023-06-10T08:47:16;7.93;;;4.20;;
5125;SDS011;63008;53.112;8.896;2023-06-10T08:49:18;3.80;;;3.10;;
5125;SDS011;63008;53.112;8.896;2023-06-10T08:51:23;9.20;;;4.60;;
5125;SDS011;63008;53.112;8.896;2023-06-10T08:53:25;13.87;;;3.97;;
5125;SDS011;63008;53.112;8.896;2023-06-10T08:55:30;11.43;;;4.33;;
5125;SDS011;63008;53.112;8.896;2023-06-10T08:57:33;9.80;;;3.57;;
5125;SDS011;63008;53.112;8.896;2023-06-10T08:59:34;6.00;;;4.37;;
5125;SDS011;63008;53.112;8.896;2023-06-10T09:01:35;5.23;;;3.67;;
5125;SDS011;63008;53.112;8.896;2023-06-10T09:03:37;9.33;;;4.40;;
5125;SDS011;63008;53.112;8.896;2023-06-10T09:05:38;9.87;;;3.50;;
5125;SDS011;63008;53.112;8.896;2023-06-10T09:07:39;6.97;;;4.27;;
5125;SDS011;63008;53.112;8.896;2023-06-10T09:09:41;6.53;;;3.63;;
5125;SDS011;63008;53.112;8.896;2023-06-10T09:11:44;9.87;;;3.87;;
5125;SDS011;63008;53.112;8.896;2023-06-10T09:13:45;7.87;;;3.90;;
5125;SDS011;63008;53.112;8.896;2023-06-10T09:15:46;11.13;;;4.27;;
5125;SDS011;63008;53.112;8.896;2023-06-10T09:17:47;6.93;;;3.67;;
5125;SDS011;63008;53.112;8.896;2023-06-10T09:19:48;4.53;;;3.10;;
5125;SDS011;63008;53.112;8.896;2023-06-10T09:21:50;9.17;;;3.57;;
5125;SDS011;63008;53.112;8.896;2023-06-10T09:23:51;4.40;;;3.37;;
5125;SDS011;63008;53.112;8.896;2023-06-10T09:25:56;8.83;;;3.70;;
5125;SDS011;63008;53.112;8.896;2023-06-10T09:27:58;6.60;;;3.73;;
5125;SDS011;63008;53.112;8.896;2023-06-10T09:29:59;4.57;;;3.03;;
5125;SDS011;63008;53.112;8.896;2023-06-10T09:32:00;3.97;;;3.30;;
5125;SDS011;63008;53.112;8.896;2023-06-10T09:34:08;9.50;;;3.73;;
5125;SDS011;63008;53.112;8.896;2023-06-10T09:36:22;7.60;;;3.83;;
5125;SDS011;63008;53.112;8.896;2023-06-10T09:38:24;5.83;;;2.90;;
5125;SDS011;63008;53.112;8.896;2023-06-10T09:40:31;6.50;;;3.60;;
5125;SDS011;63008;53.112;8.896;2023-06-10T09:42:33;9.70;;;3.53;;
5125;SDS011;63008;53.112;8.896;2023-06-10T09:44:35;11.00;;;3.93;;
5125;SDS011;63008;53.112;8.896;2023-06-10T09:46:36;7.10;;;3.17;;
5125;SDS011;63008;53.112;8.896;2023-06-10T09:48:40;4.53;;;3.17;;
5125;SDS011;63008;53.112;8.896;2023-06-10T09:50:45;6.73;;;2.93;;
5125;SDS011;63008;53.112;8.896;2023-06-10T09:52:47;6.57;;;3.70;;
5125;SDS011;63008;53.112;8.896;2023-06-10T09:54:48;4.33;;;2.80;;
5125;SDS011;63008;53.112;8.896;2023-06-10T09:56:53;8.30;;;4.07;;
5125;SDS011;63008;53.112;8.896;2023-06-10T09:58:54;6.40;;;3.27;;
5125;SDS011;63008;53.112;8.896;2023-06-10T10:00:55;4.93;;;2.97;;
5125;SDS011;63008;53.112;8.896;2023-06-10T10:02:56;3.60;;;2.80;;
5125;SDS011;63008;53.112;8.896;2023-06-10T10:05:03;4.87;;;3.23;;
5125;SDS011;63008;53.112;8.896;2023-06-10T10:07:05;3.87;;;3.40;;
5125;SDS011;63008;53.112;8.896;2023-06-10T10:09:07;11.37;;;3.50;;
5125;SDS011;63008;53.112;8.896;2023-06-10T10:11:09;5.33;;;3.63;;
5125;SDS011;63008;53.112;8.896;2023-06-10T10:13:11;4.80;;;3.67;;
5125;SDS011;63008;53.112;8.896;2023-06-10T10:15:12;6.00;;;3.83;;
5125;SDS011;63008;53.112;8.896;2023-06-10T10:17:14;6.27;;;3.60;;
5125;SDS011;63008;53.112;8.896;2023-06-10T10:19:18;5.53;;;3.37;;
5125;SDS011;63008;53.112;8.896;2023-06-10T10:21:26;6.50;;;2.80;;
5125;SDS011;63008;53.112;8.896;2023-06-10T10:23:35;5.87;;;3.17;;
5125;SDS011;63008;53.112;8.896;2023-06-10T10:25:44;10.40;;;3.13;;
5125;SDS011;63008;53.112;8.896;2023-06-10T10:27:58;3.40;;;3.03;;
5125;SDS011;63008;53.112;8.896;2023-06-10T10:30:03;5.07;;;2.77;;
5125;SDS011;63008;53.112;8.896;2023-06-10T10:32:09;4.20;;;3.20;;
5125;SDS011;63008;53.112;8.896;2023-06-10T10:34:18;10.07;;;3.30;;
5125;SDS011;63008;53.112;8.896;2023-06-10T10:36:23;10.93;;;3.23;;
5125;SDS011;63008;53.112;8.896;2023-06-10T10:38:24;6.70;;;3.30;;
5125;SDS011;63008;53.112;8.896;2023-06-10T10:40:26;6.30;;;3.20;;
5125;SDS011;63008;53.112;8.896;2023-06-10T10:42:30;4.77;;;3.03;;
5125;SDS011;63008;53.112;8.896;2023-06-10T10:44:31;6.43;;;3.20;;
5125;SDS011;63008;53.112;8.896;2023-06-10T10:46:41;2.67;;;2.43;;
5125;SDS011;63008;53.112;8.896;2023-06-10T10:48:43;3.60;;;3.00;;
5125;SDS011;63008;53.112;8.896;2023-06-10T10:50:48;11.60;;;3.03;;
5125;SDS011;63008;53.112;8.896;2023-06-10T10:53:01;5.00;;;2.90;;
5125;SDS011;63008;53.112;8.896;2023-06-10T10:55:03;9.50;;;3.07;;
5125;SDS011;63008;53.112;8.896;2023-06-10T10:59:21;5.67;;;2.73;;
5125;SDS011;63008;53.112;8.896;2023-06-10T11:01:22;3.70;;;3.00;;
5125;SDS011;63008;53.112;8.896;2023-06-10T11:03:27;4.23;;;2.50;;
5125;SDS011;63008;53.112;8.896;2023-06-10T11:05:39;4.43;;;2.90;;
5125;SDS011;63008;53.112;8.896;2023-06-10T11:07:52;4.53;;;2.73;;
5125;SDS011;63008;53.112;8.896;2023-06-10T11:12:12;4.13;;;3.40;;
5125;SDS011;63008;53.112;8.896;2023-06-10T11:14:28;3.60;;;2.90;;
5125;SDS011;63008;53.112;8.896;2023-06-10T11:16:31;9.10;;;3.07;;
5125;SDS011;63008;53.112;8.896;2023-06-10T11:18:39;5.20;;;2.60;;
5125;SDS011;63008;53.112;8.896;2023-06-10T11:21:00;2.60;;;2.40;;
5125;SDS011;63008;53.112;8.896;2023-06-10T11:23:05;4.57;;;2.63;;
5125;SDS011;63008;53.112;8.896;2023-06-10T11:25:13;3.63;;;2.70;;
5125;SDS011;63008;53.112;8.896;2023-06-10T11:27:18;3.70;;;2.63;;
5125;SDS011;63008;53.112;8.896;2023-06-10T11:29:21;4.90;;;2.93;;
5125;SDS011;63008;53.112;8.896;2023-06-10T11:31:22;3.83;;;2.60;;
5125;SDS011;63008;53.112;8.896;2023-06-10T11:33:24;6.70;;;2.90;;
5125;SDS011;63008;53.112;8.896;2023-06-10T11:35:25;2.97;;;2.67;;
5125;SDS011;63008;53.112;8.896;2023-06-10T11:37:27;8.93;;;2.83;;
5125;SDS011;63008;53.112;8.896;2023-06-10T11:39:28;2.40;;;2.17;;
5125;SDS011;63008;53.112;8.896;2023-06-10T11:41:30;6.20;;;2.90;;
5125;SDS011;63008;53.112;8.896;2023-06-10T11:43:33;7.57;;;3.30;;
5125;SDS011;63008;53.112;8.896;2023-06-10T11:45:34;5.20;;;2.87;;
5125;SDS011;63008;53.112;8.896;2023-06-10T11:47:35;4.70;;;2.50;;
5125;SDS011;63008;53.112;8.896;2023-06-10T11:49:36;8.03;;;2.50;;
5125;SDS011;63008;53.112;8.896;2023-06-10T11:51:38;4.87;;;2.23;;
5125;SDS011;63008;53.112;8.896;2023-06-10T11:53:43;3.10;;;2.73;;
5125;SDS011;63008;53.112;8.896;2023-06-10T11:55:49;2.83;;;2.50;;
5125;SDS011;63008;53.112;8.896;2023-06-10T11:57:51;2.57;;;2.37;;
5125;SDS011;63008;53.112;8.896;2023-06-10T12:00:03;6.37;;;2.73;;
5125;SDS011;63008;53.112;8.896;2023-06-10T12:02:14;4.83;;;2.63;;
5125;SDS011;63008;53.112;8.896;2023-06-10T12:04:16;4.10;;;2.90;;
5125;SDS011;63008;53.112;8.896;2023-06-10T12:06:18;4.97;;;2.33;;
5125;SDS011;63008;53.112;8.896;2023-06-10T12:08:19;5.37;;;2.73;;
5125;SDS011;63008;53.112;8.896;2023-06-10T12:10:20;2.57;;;2.07;;
5125;SDS011;63008;53.112;8.896;2023-06-10T12:12:21;2.33;;;2.00;;
5125;SDS011;63008;53.112;8.896;2023-06-10T12:16:52;3.23;;;2.40;;
5125;SDS011;63008;53.112;8.896;2023-06-10T12:19:00;4.00;;;2.37;;
5125;SDS011;63008;53.112;8.896;2023-06-10T12:21:03;4.60;;;2.37;;
5125;SDS011;63008;53.112;8.896;2023-06-10T12:23:10;4.60;;;2.93;;
5125;SDS011;63008;53.112;8.896;2023-06-10T12:25:11;2.93;;;2.50;;
5125;SDS011;63008;53.112;8.896;2023-06-10T12:27:13;7.63;;;2.50;;
5125;SDS011;63008;53.112;8.896;2023-06-10T12:29:17;5.70;;;2.63;;
5125;SDS011;63008;53.112;8.896;2023-06-10T12:31:19;4.73;;;2.80;;
5125;SDS011;63008;53.112;8.896;2023-06-10T12:33:21;9.43;;;2.90;;